Terminal Aerodrome Forecast
Issued by NWS

Home | Current Version | Previous Version | Text Only | Print | Product List | Glossary On
Versions: 1 2 3 4 5 6 7 8 9 10 11 12 13 14 15
000
FTUS44 KLUB 312332
TAFCDS
TAF
KCDS 312332Z 0100/0124 07010KT P6SM SCT060
     FM010500 10006KT 5SM BR SCT006
     FM011400 16006KT P6SM SCT050=

USA.gov is the U.S. government's official web portal to all federal, state and local government web resources and services.